Time;durP1;ratioP1;P1;durP2;ratioP2;P2;SDS_P1;SDS_P2;PMS_P1;PMS_P2;Temp;Humidity;BMP_temperature;BMP_pressure;BME280_temperature;BME280_humidity;BME280_pressure;Samples;Min_cycle;Max_cycle;Signal;HPM_P1;HPM_P2
2021/01/20 00:01:01;;;;;;;;;;;;;;;2.59;97.15;97925.50;5039495;28;19923;-73
2021/01/20 00:03:28;;;;;;;;;;;;;;;2.57;97.06;97914.38;5037010;28;20308;-73
2021/01/20 00:05:53;;;;;;;;;;;;;;;2.55;96.71;97911.16;5044009;28;19929;-76
2021/01/20 00:08:18;;;;;;;;;;;;;;;2.55;96.70;97914.63;5046395;28;20298;-77
2021/01/20 00:10:46;;;;;;;;;;;;;;;2.56;96.60;97916.22;5045420;28;19921;-74
2021/01/20 00:13:11;;;;;;;;;;;;;;;2.55;96.31;97903.28;5041185;28;19925;-74
2021/01/20 00:15:37;;;;;;;;;;;;;;;2.54;96.14;97904.28;5038333;28;19925;-73
2021/01/20 00:18:02;;;;;;;;;;;;;;;2.54;95.84;97899.81;5040334;28;19924;-70
2021/01/20 00:20:27;;;;;;;;;;;;;;;2.51;95.58;97895.00;5041303;28;20405;-70
2021/01/20 00:22:54;;;;;;;;;;;;;;;2.49;95.43;97889.13;5038748;28;19963;-70
2021/01/20 00:25:19;;;;;;;;;;;;;;;2.46;95.16;97880.88;5039089;28;19921;-73
2021/01/20 00:27:44;;;;;;;;;;;;;;;2.42;95.23;97885.81;5033155;28;19921;-74
2021/01/20 00:30:10;;;;;;;;;;;;;;;2.36;94.85;97873.50;5047875;28;19924;-73
2021/01/20 00:32:36;;;;;;;;;;;;;;;2.36;94.99;97875.34;5042597;28;19924;-75
2021/01/20 00:35:04;;;;;;;;;;;;;;;2.36;94.69;97868.22;5042639;28;19948;-76
2021/01/20 00:37:29;;;;;;;;;;;;;;;2.29;94.60;97857.75;5034587;28;19921;-73
2021/01/20 00:39:54;;;;;;;;;;;;;;;2.29;94.62;97865.66;5043339;28;19955;-75
2021/01/20 00:42:19;;;;;;;;;;;;;;;2.29;94.27;97859.63;5037572;28;19921;-73
2021/01/20 00:44:45;;;;;;;;;;;;;;;2.24;94.01;97857.66;5044974;28;19924;-75
2021/01/20 00:47:10;;;;;;;;;;;;;;;2.24;94.05;97846.31;5039922;28;20371;-70
2021/01/20 00:49:35;;;;;;;;;;;;;;;2.21;93.55;97844.09;5044966;28;20382;-74
2021/01/20 00:52:00;;;;;;;;;;;;;;;2.17;93.33;97838.47;5040481;28;20390;-75
2021/01/20 00:54:25;;;;;;;;;;;;;;;2.14;93.29;97838.13;5051177;28;19936;-76
2021/01/20 00:56:51;;;;;;;;;;;;;;;2.14;92.96;97846.81;5052314;28;20003;-74
2021/01/20 00:59:16;;;;;;;;;;;;;;;2.08;92.99;97852.13;5045959;28;20016;-73
2021/01/20 01:01:41;;;;;;;;;;;;;;;2.07;92.79;97858.44;5048293;28;20028;-72
2021/01/20 01:04:06;;;;;;;;;;;;;;;2.06;92.63;97855.00;5046959;28;19925;-73
2021/01/20 01:06:31;;;;;;;;;;;;;;;2.04;92.79;97853.59;5047840;28;20365;-69
2021/01/20 01:08:57;;;;;;;;;;;;;;;2.03;92.81;97855.44;5049009;28;21397;-74
2021/01/20 01:11:22;;;;;;;;;;;;;;;2.01;92.59;97851.44;5045809;28;20370;-72
2021/01/20 01:13:47;;;;;;;;;;;;;;;1.96;92.52;97849.44;5045252;28;19925;-72
2021/01/20 01:16:12;;;;;;;;;;;;;;;1.94;92.04;97851.50;5041516;28;19929;-74
2021/01/20 01:18:38;;;;;;;;;;;;;;;1.91;92.24;97856.38;5046042;28;19963;-73
2021/01/20 01:21:03;;;;;;;;;;;;;;;1.89;92.07;97850.53;5047179;28;19921;-71
2021/01/20 01:23:28;;;;;;;;;;;;;;;1.88;91.87;97851.56;5050224;28;20058;-76
2021/01/20 01:25:53;;;;;;;;;;;;;;;1.87;91.72;97847.31;5041451;28;20425;-71
2021/01/20 01:28:19;;;;;;;;;;;;;;;1.87;92.13;97831.53;5045862;28;19917;-72
2021/01/20 01:30:44;;;;;;;;;;;;;;;1.85;91.32;97839.63;5045840;28;19924;-72
2021/01/20 01:33:09;;;;;;;;;;;;;;;1.84;91.67;97845.09;5049325;28;20714;-71
2021/01/20 01:35:35;;;;;;;;;;;;;;;1.83;91.24;97841.69;5031954;28;19928;-73
2021/01/20 01:38:00;;;;;;;;;;;;;;;1.83;91.29;97840.88;5042721;28;19923;-74
2021/01/20 01:40:25;;;;;;;;;;;;;;;1.85;91.42;97825.69;5043839;28;19927;-71
2021/01/20 01:42:51;;;;;;;;;;;;;;;1.83;91.07;97831.16;5042402;28;20390;-70
2021/01/20 01:45:16;;;;;;;;;;;;;;;1.82;91.35;97831.34;5045014;28;19929;-76
2021/01/20 01:47:42;;;;;;;;;;;;;;;1.79;90.78;97831.81;5041817;28;20019;-76
2021/01/20 01:50:09;;;;;;;;;;;;;;;1.80;90.49;97822.88;5039748;28;19921;-73
2021/01/20 01:52:34;;;;;;;;;;;;;;;1.80;90.67;97828.16;5047982;28;20416;-72
2021/01/20 01:55:00;;;;;;;;;;;;;;;1.79;90.55;97819.44;5038429;28;20016;-70
2021/01/20 01:57:25;;;;;;;;;;;;;;;1.79;90.61;97811.56;5040559;28;20016;-71
2021/01/20 01:59:51;;;;;;;;;;;;;;;1.81;90.27;97814.78;5043706;28;19921;-69
2021/01/20 02:02:17;;;;;;;;;;;;;;;1.84;90.21;97810.91;5048462;28;19952;-75
2021/01/20 02:04:42;;;;;;;;;;;;;;;1.84;90.54;97805.63;5047932;28;19962;-73
2021/01/20 02:07:07;;;;;;;;;;;;;;;1.83;90.38;97807.50;5040490;28;19925;-71
2021/01/20 02:09:33;;;;;;;;;;;;;;;1.83;90.03;97804.84;5062126;28;19924;-73
2021/01/20 02:12:24;;;;;;;;;;;;;;;1.84;90.12;97800.38;5045708;28;20035;-71
2021/01/20 02:15:08;;;;;;;;;;;;;;;1.81;90.36;97793.75;5044588;28;20024;-73
2021/01/20 02:17:44;;;;;;;;;;;;;;;1.81;90.04;97793.75;5041365;28;20410;-72
2021/01/20 02:20:15;;;;;;;;;;;;;;;1.81;89.77;97782.41;5045606;28;19951;-71
2021/01/20 02:22:48;;;;;;;;;;;;;;;1.80;90.01;97786.06;5043637;28;19948;-72
2021/01/20 02:25:23;;;;;;;;;;;;;;;1.81;89.44;97777.16;5041566;28;19959;-72
2021/01/20 02:27:54;;;;;;;;;;;;;;;1.82;89.77;97778.75;5043261;28;19962;-72
2021/01/20 02:30:20;;;;;;;;;;;;;;;1.82;89.51;97769.03;5046788;28;19917;-72
2021/01/20 02:32:47;;;;;;;;;;;;;;;1.81;89.53;97764.81;5046563;28;19948;-70
2021/01/20 02:35:13;;;;;;;;;;;;;;;1.83;89.63;97767.22;5046483;28;19951;-74
2021/01/20 02:37:38;;;;;;;;;;;;;;;1.84;89.61;97753.03;5045885;28;20382;-70
2021/01/20 02:40:04;;;;;;;;;;;;;;;1.87;89.09;97755.22;5039170;28;20013;-73
2021/01/20 02:42:30;;;;;;;;;;;;;;;1.86;89.17;97750.97;5043205;28;19950;-72
2021/01/20 02:44:56;;;;;;;;;;;;;;;1.87;89.28;97749.97;5043608;28;19992;-69
2021/01/20 02:47:21;;;;;;;;;;;;;;;1.88;88.87;97760.25;5044864;28;19961;-69
2021/01/20 02:49:47;;;;;;;;;;;;;;;1.87;88.86;97768.38;5044865;28;20366;-72
2021/01/20 02:52:18;;;;;;;;;;;;;;;1.88;88.69;97764.75;5043425;28;20429;-74
2021/01/20 02:54:45;;;;;;;;;;;;;;;1.88;88.37;97759.47;5043558;28;19920;-73
2021/01/20 02:57:10;;;;;;;;;;;;;;;1.87;88.35;97761.31;5039864;28;20012;-72
2021/01/20 02:59:36;;;;;;;;;;;;;;;1.88;87.98;97762.13;5046209;28;20082;-70
2021/01/20 03:02:05;;;;;;;;;;;;;;;1.86;87.90;97754.41;5060152;28;20015;-73
2021/01/20 03:04:32;;;;;;;;;;;;;;;1.87;87.72;97748.16;5047586;28;19923;-70
2021/01/20 03:06:59;;;;;;;;;;;;;;;1.88;87.80;97751.59;5035088;28;19925;-74
2021/01/20 03:09:24;;;;;;;;;;;;;;;1.88;87.89;97762.91;5038267;28;19917;-74
2021/01/20 03:11:50;;;;;;;;;;;;;;;1.90;87.40;97754.81;5048304;28;19921;-69
2021/01/20 03:14:18;;;;;;;;;;;;;;;1.91;87.99;97759.03;5044615;28;19929;-74
2021/01/20 03:16:43;;;;;;;;;;;;;;;1.91;87.82;97756.41;5040580;28;20432;-73
2021/01/20 03:19:11;;;;;;;;;;;;;;;1.88;87.60;97768.16;5045893;28;19989;-74
2021/01/20 03:21:37;;;;;;;;;;;;;;;1.89;87.17;97761.06;5035848;28;19959;-75
2021/01/20 03:24:02;;;;;;;;;;;;;;;1.90;87.19;97760.84;5037829;28;20355;-72
2021/01/20 03:26:28;;;;;;;;;;;;;;;1.90;87.17;97760.06;5049267;28;20386;-73
2021/01/20 03:28:53;;;;;;;;;;;;;;;1.89;87.23;97769.78;5041564;28;20009;-70
2021/01/20 03:31:18;;;;;;;;;;;;;;;1.90;87.05;97758.22;5038934;28;19920;-71
2021/01/20 03:33:44;;;;;;;;;;;;;;;1.87;87.32;97756.03;5043690;28;19925;-71
2021/01/20 03:36:09;;;;;;;;;;;;;;;1.85;86.92;97759.91;5036699;28;19979;-75
2021/01/20 03:38:34;;;;;;;;;;;;;;;1.82;86.76;97770.88;5046549;28;19926;-73
2021/01/20 03:40:59;;;;;;;;;;;;;;;1.77;86.67;97760.22;5041919;28;19971;-70
2021/01/20 03:43:25;;;;;;;;;;;;;;;1.76;86.33;97758.59;5039140;28;20371;-73
2021/01/20 03:45:50;;;;;;;;;;;;;;;1.74;86.33;97760.63;5041091;28;20290;-71
2021/01/20 03:48:15;;;;;;;;;;;;;;;1.74;86.50;97758.81;5038435;28;20377;-74
2021/01/20 03:50:40;;;;;;;;;;;;;;;1.75;86.17;97760.41;5047311;28;19932;-73
2021/01/20 03:53:06;;;;;;;;;;;;;;;1.76;85.72;97758.59;5040544;28;19925;-72
2021/01/20 03:55:31;;;;;;;;;;;;;;;1.74;85.87;97750.13;5044163;28;19948;-73
2021/01/20 03:57:56;;;;;;;;;;;;;;;1.74;85.73;97750.94;5045003;28;19981;-74
2021/01/20 04:00:21;;;;;;;;;;;;;;;1.73;86.08;97751.94;5039227;28;20023;-72
2021/01/20 04:02:47;;;;;;;;;;;;;;;1.71;85.60;97753.97;5041232;28;19921;-75
2021/01/20 04:05:12;;;;;;;;;;;;;;;1.70;85.21;97764.72;5039311;28;19917;-71
2021/01/20 04:07:37;;;;;;;;;;;;;;;1.65;85.16;97760.13;5041393;28;19979;-71
2021/01/20 04:10:07;;;;;;;;;;;;;;;1.64;85.30;97752.47;5040027;28;19924;-73
2021/01/20 04:12:32;;;;;;;;;;;;;;;1.64;85.47;97763.75;5037504;28;19921;-73
2021/01/20 04:14:58;;;;;;;;;;;;;;;1.63;84.79;97769.25;5041193;28;19928;-71
2021/01/20 04:17:23;;;;;;;;;;;;;;;1.60;85.15;97765.22;5039980;28;20349;-71
2021/01/20 04:19:48;;;;;;;;;;;;;;;1.59;84.60;97761.00;5039502;28;20325;-74
2021/01/20 04:22:13;;;;;;;;;;;;;;;1.59;84.87;97765.47;5046332;28;19940;-74
2021/01/20 04:24:38;;;;;;;;;;;;;;;1.58;84.58;97769.09;5044944;28;19921;-70
2021/01/20 04:27:04;;;;;;;;;;;;;;;1.56;84.67;97761.44;5044590;28;19936;-73
2021/01/20 04:29:29;;;;;;;;;;;;;;;1.57;84.65;97764.88;5048235;28;19952;-74
2021/01/20 04:31:54;;;;;;;;;;;;;;;1.55;84.88;97762.47;5042394;28;20404;-72
2021/01/20 04:34:19;;;;;;;;;;;;;;;1.53;84.67;97762.66;5044340;28;20353;-74
2021/01/20 04:36:45;;;;;;;;;;;;;;;1.53;84.46;97752.16;5044804;28;19921;-70
2021/01/20 04:39:10;;;;;;;;;;;;;;;1.52;84.89;97763.69;5041318;28;19916;-72
2021/01/20 04:41:35;;;;;;;;;;;;;;;1.53;84.91;97757.41;5037265;28;19925;-76
2021/01/20 04:44:00;;;;;;;;;;;;;;;1.57;85.01;97759.59;5050037;28;20015;-73
2021/01/20 04:46:27;;;;;;;;;;;;;;;1.54;85.34;97755.59;5041341;28;19959;-71
2021/01/20 04:48:54;;;;;;;;;;;;;;;1.57;85.27;97751.72;5044825;28;19952;-73
2021/01/20 04:51:22;;;;;;;;;;;;;;;1.60;85.23;97744.19;5048027;28;19917;-72
2021/01/20 04:53:49;;;;;;;;;;;;;;;1.63;85.91;97737.69;5035885;28;20320;-76
2021/01/20 04:56:14;;;;;;;;;;;;;;;1.66;85.37;97737.28;5041073;28;20067;-71
2021/01/20 04:58:40;;;;;;;;;;;;;;;1.67;85.83;97733.59;5046686;28;20011;-72
2021/01/20 05:01:05;;;;;;;;;;;;;;;1.68;85.73;97740.47;5044045;28;19921;-76
2021/01/20 05:03:31;;;;;;;;;;;;;;;1.71;86.16;97726.88;5045000;28;19928;-75
2021/01/20 05:05:56;;;;;;;;;;;;;;;1.71;85.90;97732.13;5049958;28;19924;-70
2021/01/20 05:08:22;;;;;;;;;;;;;;;1.71;85.60;97716.34;5041600;28;19935;-74
2021/01/20 05:10:50;;;;;;;;;;;;;;;1.72;85.86;97723.22;5040220;28;19921;-74
2021/01/20 05:13:23;;;;;;;;;;;;;;;1.75;85.66;97717.56;5040846;28;19964;-75
2021/01/20 05:15:48;;;;;;;;;;;;;;;1.74;85.83;97722.00;5041920;28;19924;-74
2021/01/20 05:18:13;;;;;;;;;;;;;;;1.76;85.60;97716.50;5037101;28;20278;-70
2021/01/20 05:20:39;;;;;;;;;;;;;;;1.77;85.66;97715.50;5044443;28;20322;-72
2021/01/20 05:23:05;;;;;;;;;;;;;;;1.80;85.58;97717.66;5041643;28;20008;-70
2021/01/20 05:25:37;;;;;;;;;;;;;;;1.81;85.88;97721.91;5037793;28;19928;-76
2021/01/20 05:28:15;;;;;;;;;;;;;;;1.79;85.59;97716.06;5043832;28;19948;-75
2021/01/20 05:30:47;;;;;;;;;;;;;;;1.79;85.73;97718.72;5045590;28;20043;-71
2021/01/20 05:33:14;;;;;;;;;;;;;;;1.81;85.50;97712.22;5040567;28;20297;-70
2021/01/20 05:35:39;;;;;;;;;;;;;;;1.79;85.75;97701.06;5039537;28;19921;-74
2021/01/20 05:38:04;;;;;;;;;;;;;;;1.82;86.12;97702.47;5045052;28;19929;-74
2021/01/20 05:40:33;;;;;;;;;;;;;;;1.82;86.28;97713.00;5044238;28;19921;-71
2021/01/20 05:42:59;;;;;;;;;;;;;;;1.84;86.33;97700.41;5049518;28;19921;-72
2021/01/20 05:45:24;;;;;;;;;;;;;;;1.84;86.38;97688.06;5036829;28;19921;-74
2021/01/20 05:48:21;;;;;;;;;;;;;;;1.85;86.46;97686.25;5046791;28;19928;-72
2021/01/20 05:50:54;;;;;;;;;;;;;;;1.86;86.16;97701.00;5002110;28;19974;-70
2021/01/20 05:53:19;;;;;;;;;;;;;;;1.85;86.12;97702.03;5047450;28;19929;-73
2021/01/20 05:55:59;;;;;;;;;;;;;;;1.87;86.06;97694.72;5047443;28;20572;-75
2021/01/20 05:58:35;;;;;;;;;;;;;;;1.87;85.88;97698.16;5043474;28;19951;-70
2021/01/20 06:01:10;;;;;;;;;;;;;;;1.88;86.10;97697.13;5040740;28;19917;-75
2021/01/20 06:03:35;;;;;;;;;;;;;;;1.91;86.04;97701.16;5042053;28;20305;-70
2021/01/20 06:06:05;;;;;;;;;;;;;;;1.90;86.22;97696.94;5046285;28;19996;-73
2021/01/20 06:08:34;;;;;;;;;;;;;;;1.90;85.98;97695.06;5044102;28;20317;-75
2021/01/20 06:11:00;;;;;;;;;;;;;;;1.91;86.12;97693.25;5039212;28;19930;-77
2021/01/20 06:13:25;;;;;;;;;;;;;;;1.91;86.22;97688.00;5040300;28;19932;-69
2021/01/20 06:15:53;;;;;;;;;;;;;;;1.93;86.13;97685.94;5038582;28;20274;-70
2021/01/20 06:18:22;;;;;;;;;;;;;;;1.92;86.10;97692.25;5042927;28;19921;-72
2021/01/20 06:20:49;;;;;;;;;;;;;;;1.94;86.22;97692.81;5043899;28;19990;-70
2021/01/20 06:23:16;;;;;;;;;;;;;;;1.93;86.26;97689.38;5038912;28;20409;-75
2021/01/20 06:25:42;;;;;;;;;;;;;;;1.83;85.86;97685.69;5037483;28;19921;-72
2021/01/20 06:28:09;;;;;;;;;;;;;;;1.93;85.93;97693.84;5036647;28;19968;-71
2021/01/20 06:30:34;;;;;;;;;;;;;;;1.93;86.34;97686.75;5036011;28;19929;-74
2021/01/20 06:33:03;;;;;;;;;;;;;;;1.91;86.22;97686.16;5037380;28;19942;-74
2021/01/20 06:35:44;;;;;;;;;;;;;;;1.93;86.52;97691.19;5034604;28;19921;-70
2021/01/20 06:38:27;;;;;;;;;;;;;;;1.94;86.40;97692.81;5036725;28;19925;-69
2021/01/20 06:40:55;;;;;;;;;;;;;;;1.96;86.39;97690.78;5034279;28;20409;-70
2021/01/20 06:43:29;;;;;;;;;;;;;;;1.95;86.13;97695.22;5035366;28;19925;-72
2021/01/20 06:46:09;;;;;;;;;;;;;;;1.90;86.38;97678.50;5035569;28;19934;-71
2021/01/20 06:48:54;;;;;;;;;;;;;;;1.98;86.42;97691.34;5037738;28;19917;-71
2021/01/20 06:51:24;;;;;;;;;;;;;;;1.99;86.20;97690.31;5034374;28;19979;-71
2021/01/20 06:54:01;;;;;;;;;;;;;;;1.98;86.24;97694.78;5033486;28;19929;-71
2021/01/20 06:56:46;;;;;;;;;;;;;;;1.98;86.62;97692.16;5034106;28;19924;-72
2021/01/20 06:59:22;;;;;;;;;;;;;;;2.01;86.67;97693.56;5034013;28;19943;-72
2021/01/20 07:02:02;;;;;;;;;;;;;;;2.01;86.18;97696.19;5033550;28;19968;-70
2021/01/20 07:04:37;;;;;;;;;;;;;;;2.03;86.55;97696.75;5034098;28;19920;-71
2021/01/20 07:07:12;;;;;;;;;;;;;;;2.01;86.34;97694.31;5034995;28;19921;-71
2021/01/20 07:09:50;;;;;;;;;;;;;;;2.02;86.00;97693.31;5038819;28;19924;-74
2021/01/20 07:12:16;;;;;;;;;;;;;;;2.03;86.35;97694.13;5048825;28;19924;-74
2021/01/20 07:14:43;;;;;;;;;;;;;;;2.03;86.39;97686.25;5037797;28;19924;-74
2021/01/20 07:17:08;;;;;;;;;;;;;;;2.05;86.17;97689.44;5032294;28;19925;-72
2021/01/20 07:19:34;;;;;;;;;;;;;;;2.06;86.23;97681.31;5033461;28;19921;-70
2021/01/20 07:21:59;;;;;;;;;;;;;;;2.08;86.08;97684.53;5034804;28;19931;-71
2021/01/20 07:24:24;;;;;;;;;;;;;;;2.09;86.04;97683.50;5033389;28;19925;-71
2021/01/20 07:26:50;;;;;;;;;;;;;;;2.12;86.21;97682.25;5033625;28;19933;-73
2021/01/20 07:29:16;;;;;;;;;;;;;;;2.11;86.14;97665.66;5035006;28;21908;-69
2021/01/20 07:31:47;;;;;;;;;;;;;;;2.13;86.31;97668.88;5033009;28;19929;-72
2021/01/20 07:34:13;;;;;;;;;;;;;;;2.14;86.43;97667.06;5032298;28;19932;-73
2021/01/20 07:36:38;;;;;;;;;;;;;;;2.14;86.34;97667.84;5032456;28;19936;-71
2021/01/20 07:39:18;;;;;;;;;;;;;;;2.16;86.05;97668.41;5034018;28;20456;-72
2021/01/20 07:41:50;;;;;;;;;;;;;;;2.17;86.18;97651.63;5031998;28;20035;-70
2021/01/20 07:44:15;;;;;;;;;;;;;;;2.20;86.50;97663.53;5034267;28;19995;-72
2021/01/20 07:46:40;;;;;;;;;;;;;;;2.19;86.29;97661.91;5039228;28;20366;-73
2021/01/20 07:49:13;;;;;;;;;;;;;;;2.20;86.00;97658.25;5032369;28;20047;-72
2021/01/20 07:51:38;;;;;;;;;;;;;;;2.23;86.00;97655.16;5035609;28;20353;-74
2021/01/20 07:54:04;;;;;;;;;;;;;;;2.24;86.35;97656.78;5033269;28;19929;-74
2021/01/20 07:56:30;;;;;;;;;;;;;;;2.26;85.97;97676.59;5033214;28;21660;-74
2021/01/20 07:58:56;;;;;;;;;;;;;;;2.27;86.19;97664.25;5035139;28;19947;-75
2021/01/20 08:01:28;;;;;;;;;;;;;;;2.28;85.99;97669.28;5033758;28;20446;-74
2021/01/20 08:03:54;;;;;;;;;;;;;;;2.30;86.10;97674.31;5033757;28;19951;-71
2021/01/20 08:06:19;;;;;;;;;;;;;;;2.29;86.02;97670.84;5032035;28;20382;-71
2021/01/20 08:08:55;;;;;;;;;;;;;;;2.29;86.31;97670.09;5033826;28;19935;-70
2021/01/20 08:11:22;;;;;;;;;;;;;;;2.31;85.98;97673.28;5048667;28;19928;-73
2021/01/20 08:13:48;;;;;;;;;;;;;;;2.32;86.50;97669.63;5035455;28;19929;-72
2021/01/20 08:16:13;;;;;;;;;;;;;;;2.33;86.23;97659.91;5032132;28;20484;-69
2021/01/20 08:18:39;;;;;;;;;;;;;;;2.34;86.58;97667.56;5035708;28;19921;-71
2021/01/20 08:21:08;;;;;;;;;;;;;;;2.36;86.33;97665.50;5034163;28;19923;-71
2021/01/20 08:23:54;;;;;;;;;;;;;;;2.38;86.30;97671.34;5032095;28;20325;-72
2021/01/20 08:26:23;;;;;;;;;;;;;;;2.38;86.51;97663.44;5032483;28;19932;-70
2021/01/20 08:29:04;;;;;;;;;;;;;;;2.39;86.51;97653.72;5033223;28;20271;-72
2021/01/20 08:31:29;;;;;;;;;;;;;;;2.41;86.27;97654.28;5032772;28;19928;-73
2021/01/20 08:34:13;;;;;;;;;;;;;;;2.41;86.41;97652.47;5046083;28;19924;-75
2021/01/20 08:36:39;;;;;;;;;;;;;;;2.43;86.21;97639.88;5032209;28;19917;-74
2021/01/20 08:39:07;;;;;;;;;;;;;;;2.43;86.62;97642.50;5030875;28;19935;-73
2021/01/20 08:41:32;;;;;;;;;;;;;;;2.46;86.56;97642.06;5030978;28;19978;-74
2021/01/20 08:44:14;;;;;;;;;;;;;;;2.45;86.50;97631.75;5035118;28;20352;-73
2021/01/20 08:46:39;;;;;;;;;;;;;;;2.46;86.39;97636.81;5032803;28;20006;-73
2021/01/20 08:49:05;;;;;;;;;;;;;;;2.48;86.30;97640.00;5032377;28;19921;-72
2021/01/20 08:51:30;;;;;;;;;;;;;;;2.49;86.03;97641.59;5032134;28;19932;-71
2021/01/20 08:54:08;;;;;;;;;;;;;;;2.51;86.27;97650.06;5029839;28;20637;-73
2021/01/20 08:56:33;;;;;;;;;;;;;;;2.52;86.64;97643.78;5031678;28;19923;-69
2021/01/20 08:58:58;;;;;;;;;;;;;;;2.54;86.54;97654.91;5033630;28;19924;-70
2021/01/20 09:01:26;;;;;;;;;;;;;;;2.56;86.37;97652.84;5028498;28;19920;-71
2021/01/20 09:03:55;;;;;;;;;;;;;;;2.59;86.45;97654.22;5033626;28;19925;-70
2021/01/20 09:06:20;;;;;;;;;;;;;;;2.60;86.66;97655.84;5035177;28;19920;-70
2021/01/20 09:08:45;;;;;;;;;;;;;;;2.62;86.42;97645.88;5035863;28;19929;-73
2021/01/20 09:11:10;;;;;;;;;;;;;;;2.61;86.57;97644.25;5034906;28;20019;-73
2021/01/20 09:13:36;;;;;;;;;;;;;;;2.65;86.65;97648.84;5039747;28;19951;-71
2021/01/20 09:16:01;;;;;;;;;;;;;;;2.66;86.23;97650.47;5035414;28;19917;-72
2021/01/20 09:18:26;;;;;;;;;;;;;;;2.67;86.37;97651.25;5034838;28;20317;-72
2021/01/20 09:20:52;;;;;;;;;;;;;;;2.69;86.36;97660.53;5019736;28;21491;-73
2021/01/20 09:23:17;;;;;;;;;;;;;;;2.70;86.40;97659.53;5034492;28;20023;-73
2021/01/20 09:25:43;;;;;;;;;;;;;;;2.73;86.29;97648.50;5032049;28;19924;-71
2021/01/20 09:28:08;;;;;;;;;;;;;;;2.73;86.14;97655.63;5035501;28;19921;-74
2021/01/20 09:30:34;;;;;;;;;;;;;;;2.76;86.32;97655.97;5037198;28;19929;-73
2021/01/20 09:32:59;;;;;;;;;;;;;;;2.79;86.05;97649.44;5034620;28;19917;-74
2021/01/20 09:35:24;;;;;;;;;;;;;;;2.80;86.13;97659.75;5037570;28;19936;-74
2021/01/20 09:37:51;;;;;;;;;;;;;;;2.82;86.14;97656.88;5036097;28;20047;-72
2021/01/20 09:40:18;;;;;;;;;;;;;;;2.84;85.90;97652.22;5035674;28;19925;-73
2021/01/20 09:42:44;;;;;;;;;;;;;;;2.85;86.11;97657.25;5021592;28;20577;-72
2021/01/20 09:45:11;;;;;;;;;;;;;;;2.89;86.13;97654.94;5035250;28;19962;-74
2021/01/20 09:47:36;;;;;;;;;;;;;;;2.90;85.91;97662.63;5034374;28;20021;-73
2021/01/20 09:50:02;;;;;;;;;;;;;;;2.89;85.64;97658.38;5034829;28;20368;-75
2021/01/20 09:52:28;;;;;;;;;;;;;;;2.92;85.62;97659.75;5035233;28;19943;-75
2021/01/20 09:54:53;;;;;;;;;;;;;;;2.93;85.76;97648.19;5034318;28;20313;-73
2021/01/20 09:57:19;;;;;;;;;;;;;;;2.95;85.56;97643.47;5033449;28;19967;-73
2021/01/20 09:59:45;;;;;;;;;;;;;;;2.96;85.76;97653.81;5050374;28;19968;-77
2021/01/20 10:02:10;;;;;;;;;;;;;;;2.99;85.66;97655.19;5037118;28;19960;-75
2021/01/20 10:04:35;;;;;;;;;;;;;;;2.99;85.71;97640.16;5035417;28;20758;-75
2021/01/20 10:07:00;;;;;;;;;;;;;;;3.02;85.40;97641.53;5033061;28;20019;-74
2021/01/20 10:09:26;;;;;;;;;;;;;;;3.02;85.36;97644.16;5036681;28;20619;-77
2021/01/20 10:11:51;;;;;;;;;;;;;;;3.02;85.59;97633.63;5034805;28;19925;-74
2021/01/20 10:14:17;;;;;;;;;;;;;;;3.03;85.47;97636.06;5033204;28;20073;-74
2021/01/20 10:16:46;;;;;;;;;;;;;;;3.08;85.75;97621.38;5035524;28;19924;-75
2021/01/20 10:19:11;;;;;;;;;;;;;;;3.07;85.41;97625.84;5034183;28;19932;-73
2021/01/20 10:21:36;;;;;;;;;;;;;;;2.90;85.26;97585.41;5033044;28;19921;-73
2021/01/20 10:24:02;;;;;;;;;;;;;;;3.11;85.00;97613.00;5036204;28;19964;-76
2021/01/20 10:26:27;;;;;;;;;;;;;;;3.11;85.08;97619.06;5032337;28;19931;-74
2021/01/20 10:28:52;;;;;;;;;;;;;;;3.11;85.64;97613.00;5043939;28;19929;-75
2021/01/20 10:31:17;;;;;;;;;;;;;;;3.11;85.64;97610.34;5031347;28;19975;-73
2021/01/20 10:33:43;;;;;;;;;;;;;;;3.12;85.56;97617.25;5037704;28;19925;-73
2021/01/20 10:36:08;;;;;;;;;;;;;;;3.12;85.90;97607.50;5037446;28;20397;-74
2021/01/20 10:38:33;;;;;;;;;;;;;;;3.11;86.08;97599.81;5031306;28;19925;-73
2021/01/20 10:40:58;;;;;;;;;;;;;;;3.10;85.92;97604.31;5046858;28;19978;-74
2021/01/20 10:43:24;;;;;;;;;;;;;;;3.09;86.43;97591.34;5033618;28;19921;-72
2021/01/20 10:45:49;;;;;;;;;;;;;;;3.09;86.34;97593.97;5038180;28;19936;-73
2021/01/20 10:48:14;;;;;;;;;;;;;;;3.09;86.49;97578.97;5033795;28;19927;-71
2021/01/20 10:50:39;;;;;;;;;;;;;;;3.10;86.57;97570.03;5034584;28;19931;-72
2021/01/20 10:53:05;;;;;;;;;;;;;;;3.11;86.58;97555.00;5032556;28;20408;-71
2021/01/20 10:55:30;;;;;;;;;;;;;;;3.12;86.78;97559.25;5033390;28;20409;-75
2021/01/20 10:57:55;;;;;;;;;;;;;;;3.14;86.60;97559.81;5035893;28;19928;-72
2021/01/20 11:00:20;;;;;;;;;;;;;;;3.14;86.67;97562.47;5034275;28;19921;-72
2021/01/20 11:02:46;;;;;;;;;;;;;;;3.14;86.86;97563.25;5036053;28;19929;-75
2021/01/20 11:05:11;;;;;;;;;;;;;;;3.17;86.67;97567.28;5033394;28;19934;-73
2021/01/20 11:07:36;;;;;;;;;;;;;;;3.21;86.69;97576.31;5035855;28;19974;-73
2021/01/20 11:10:05;;;;;;;;;;;;;;;3.21;87.06;97573.69;5033842;28;19929;-74
2021/01/20 11:12:30;;;;;;;;;;;;;;;3.22;86.78;97588.44;5035823;28;19974;-71
2021/01/20 11:14:55;;;;;;;;;;;;;;;3.22;86.67;97581.34;5031447;28;19936;-71
2021/01/20 11:17:20;;;;;;;;;;;;;;;3.22;86.61;97577.91;5033648;28;19928;-70
2021/01/20 11:19:46;;;;;;;;;;;;;;;3.24;86.33;97581.91;5035918;28;19933;-74
2021/01/20 11:22:11;;;;;;;;;;;;;;;3.24;86.11;97571.38;5031482;28;19920;-73
2021/01/20 11:24:36;;;;;;;;;;;;;;;3.25;85.77;97559.81;5033147;28;19929;-71
2021/01/20 11:27:02;;;;;;;;;;;;;;;3.28;85.82;97558.50;5032064;28;19924;-71
2021/01/20 11:29:27;;;;;;;;;;;;;;;3.27;85.63;97564.84;5035697;28;19943;-74
2021/01/20 11:31:52;;;;;;;;;;;;;;;3.30;85.98;97559.88;5034623;28;19975;-74
2021/01/20 11:34:18;;;;;;;;;;;;;;;3.33;86.12;97548.06;5031982;28;19932;-73
2021/01/20 11:36:43;;;;;;;;;;;;;;;3.34;85.83;97549.69;5033564;28;19929;-71
2021/01/20 11:39:08;;;;;;;;;;;;;;;3.36;85.62;97542.34;5034020;28;19933;-72
2021/01/20 11:41:33;;;;;;;;;;;;;;;3.35;85.47;97543.38;5033040;28;21959;-75
2021/01/20 11:43:59;;;;;;;;;;;;;;;3.38;85.52;97529.72;5039851;28;19927;-73
2021/01/20 11:46:24;;;;;;;;;;;;;;;3.39;85.69;97524.19;5035812;28;19928;-73
2021/01/20 11:48:49;;;;;;;;;;;;;;;3.41;85.91;97519.50;5038289;28;19924;-71
2021/01/20 11:51:15;;;;;;;;;;;;;;;3.44;85.53;97505.03;5031889;28;19978;-72
2021/01/20 11:53:40;;;;;;;;;;;;;;;3.45;85.43;97496.88;5046560;28;19947;-72
2021/01/20 11:56:07;;;;;;;;;;;;;;;3.48;85.55;97485.88;5031944;28;21179;-70
2021/01/20 11:58:32;;;;;;;;;;;;;;;3.49;85.31;97489.31;5032754;28;20051;-73
2021/01/20 12:00:58;;;;;;;;;;;;;;;3.50;85.71;97475.88;5042916;28;19952;-72
2021/01/20 12:03:24;;;;;;;;;;;;;;;3.53;85.51;97479.88;5030369;28;20309;-72
2021/01/20 12:05:52;;;;;;;;;;;;;;;3.54;85.13;97471.72;5031976;28;19928;-70
2021/01/20 12:08:18;;;;;;;;;;;;;;;3.55;85.30;97469.91;5032981;28;19987;-72
2021/01/20 12:10:43;;;;;;;;;;;;;;;3.59;85.39;97465.75;5040412;28;20685;-73
2021/01/20 12:13:08;;;;;;;;;;;;;;;3.60;85.63;97462.09;5043556;28;19921;-71
2021/01/20 12:15:33;;;;;;;;;;;;;;;3.62;85.49;97463.44;5047926;28;20024;-73
2021/01/20 12:17:59;;;;;;;;;;;;;;;3.67;85.52;97454.78;5046737;28;19921;-73
2021/01/20 12:20:24;;;;;;;;;;;;;;;3.72;85.29;97446.97;5047908;28;20294;-74
2021/01/20 12:22:49;;;;;;;;;;;;;;;3.79;85.27;97439.72;5044085;28;19974;-77
2021/01/20 12:25:15;;;;;;;;;;;;;;;3.86;85.27;97429.81;5041522;28;20316;-73
2021/01/20 12:27:40;;;;;;;;;;;;;;;3.91;85.08;97421.94;5046158;28;19929;-74
2021/01/20 12:30:09;;;;;;;;;;;;;;;3.98;85.08;97430.50;5042720;28;19952;-75
2021/01/20 12:32:35;;;;;;;;;;;;;;;4.04;84.27;97426.88;5045391;28;19931;-73
2021/01/20 12:35:01;;;;;;;;;;;;;;;4.11;84.49;97422.25;5045840;28;19928;-73
2021/01/20 12:37:26;;;;;;;;;;;;;;;4.19;84.30;97423.69;5048955;28;19925;-74
2021/01/20 12:39:51;;;;;;;;;;;;;;;4.22;84.04;97424.00;5052218;28;19924;-73
2021/01/20 12:42:16;;;;;;;;;;;;;;;4.27;84.11;97425.91;5052685;28;19929;-71
2021/01/20 12:44:41;;;;;;;;;;;;;;;4.31;83.50;97425.19;5052947;28;20015;-72
2021/01/20 12:47:07;;;;;;;;;;;;;;;4.36;83.96;97425.25;5049551;28;19967;-72
2021/01/20 12:49:32;;;;;;;;;;;;;;;4.38;83.53;97420.53;5051645;28;19920;-76
2021/01/20 12:51:58;;;;;;;;;;;;;;;4.43;83.09;97417.94;5049426;28;20010;-72
2021/01/20 12:54:23;;;;;;;;;;;;;;;4.44;82.20;97414.28;5047472;28;20394;-76
2021/01/20 12:56:48;;;;;;;;;;;;;;;4.47;82.17;97408.50;5041731;28;19924;-76